sensor_id;sensor_type;location;lat;lon;timestamp;pressure;altitude;pressure_sealevel;temperature;humidity
11888;BME280;6003;42.756;23.130;2022-11-25T00:01:55;153525.34;;;4.34;95.46
11888;BME280;6003;42.756;23.130;2022-11-25T00:04:22;153538.50;;;4.39;94.96
11888;BME280;6003;42.756;23.130;2022-11-25T00:06:49;153539.81;;;4.39;95.20
11888;BME280;6003;42.756;23.130;2022-11-25T00:09:16;153545.09;;;4.41;95.24
11888;BME280;6003;42.756;23.130;2022-11-25T00:11:42;153554.28;;;4.45;95.22
11888;BME280;6003;42.756;23.130;2022-11-25T00:14:12;153552.97;;;4.44;95.22
11888;BME280;6003;42.756;23.130;2022-11-25T00:16:40;153547.69;;;4.42;94.71
11888;BME280;6003;42.756;23.130;2022-11-25T00:19:08;153537.19;;;4.38;95.74
11888;BME280;6003;42.756;23.130;2022-11-25T00:21:35;153542.47;;;4.40;95.58
11888;BME280;6003;42.756;23.130;2022-11-25T00:24:04;153539.81;;;4.39;95.58
11888;BME280;6003;42.756;23.130;2022-11-25T00:26:32;153537.19;;;4.38;95.51
11888;BME280;6003;42.756;23.130;2022-11-25T00:29:01;153547.69;;;4.42;95.36
11888;BME280;6003;42.756;23.130;2022-11-25T00:31:30;153533.22;;;4.37;95.40
11888;BME280;6003;42.756;23.130;2022-11-25T00:33:58;153531.91;;;4.36;95.68
11888;BME280;6003;42.756;23.130;2022-11-25T00:36:27;153526.66;;;4.34;95.86
11888;BME280;6003;42.756;23.130;2022-11-25T00:38:55;153518.75;;;4.31;95.87
11888;BME280;6003;42.756;23.130;2022-11-25T00:41:23;153522.72;;;4.33;95.97
11888;BME280;6003;42.756;23.130;2022-11-25T00:44:09;153533.22;;;4.37;95.93
11888;BME280;6003;42.756;23.130;2022-11-25T00:46:53;153539.81;;;4.39;95.62
11888;BME280;6003;42.756;23.130;2022-11-25T00:49:21;153541.13;;;4.40;95.91
11888;BME280;6003;42.756;23.130;2022-11-25T00:51:48;153552.97;;;4.44;95.49
11888;BME280;6003;42.756;23.130;2022-11-25T00:54:15;153547.69;;;4.42;95.55
11888;BME280;6003;42.756;23.130;2022-11-25T00:56:42;153555.59;;;4.45;95.87
11888;BME280;6003;42.756;23.130;2022-11-25T00:59:09;153555.59;;;4.45;95.36
11888;BME280;6003;42.756;23.130;2022-11-25T01:01:36;153552.97;;;4.44;95.99
11888;BME280;6003;42.756;23.130;2022-11-25T01:04:04;153547.69;;;4.42;95.43
11888;BME280;6003;42.756;23.130;2022-11-25T01:06:33;153546.41;;;4.42;95.73
11888;BME280;6003;42.756;23.130;2022-11-25T01:09:00;153539.81;;;4.39;95.44
11888;BME280;6003;42.756;23.130;2022-11-25T01:11:27;153552.97;;;4.44;95.67
11888;BME280;6003;42.756;23.130;2022-11-25T01:13:54;153558.25;;;4.46;95.44
11888;BME280;6003;42.756;23.130;2022-11-25T01:16:23;153547.69;;;4.42;95.15
11888;BME280;6003;42.756;23.130;2022-11-25T01:18:50;153549.00;;;4.43;95.27
11888;BME280;6003;42.756;23.130;2022-11-25T01:21:20;153558.25;;;4.46;94.83
11888;BME280;6003;42.756;23.130;2022-11-25T01:23:48;153571.38;;;4.51;94.28
11888;BME280;6003;42.756;23.130;2022-11-25T01:26:17;153558.25;;;4.46;94.21
11888;BME280;6003;42.756;23.130;2022-11-25T01:28:44;153574.03;;;4.52;93.34
11888;BME280;6003;42.756;23.130;2022-11-25T01:31:13;153581.91;;;4.56;92.79
11888;BME280;6003;42.756;23.130;2022-11-25T01:33:41;153579.31;;;4.55;93.20
11888;BME280;6003;42.756;23.130;2022-11-25T01:36:10;153579.31;;;4.55;92.83
11888;BME280;6003;42.756;23.130;2022-11-25T01:38:37;153581.91;;;4.56;92.92
11888;BME280;6003;42.756;23.130;2022-11-25T01:41:07;153574.03;;;4.52;93.09
11888;BME280;6003;42.756;23.130;2022-11-25T01:43:35;153575.34;;;4.53;92.42
11888;BME280;6003;42.756;23.130;2022-11-25T01:46:06;153584.53;;;4.57;92.91
11888;BME280;6003;42.756;23.130;2022-11-25T01:48:38;153589.81;;;4.59;93.04
11888;BME280;6003;42.756;23.130;2022-11-25T01:51:17;153576.63;;;4.53;93.10
11888;BME280;6003;42.756;23.130;2022-11-25T01:53:47;153587.19;;;4.58;92.72
11888;BME280;6003;42.756;23.130;2022-11-25T01:56:15;153581.91;;;4.56;92.62
11888;BME280;6003;42.756;23.130;2022-11-25T01:58:43;153581.91;;;4.56;92.42
11888;BME280;6003;42.756;23.130;2022-11-25T02:01:14;153574.03;;;4.52;92.55
11888;BME280;6003;42.756;23.130;2022-11-25T02:03:43;153567.44;;;4.50;92.68
11888;BME280;6003;42.756;23.130;2022-11-25T02:06:16;153564.84;;;4.49;92.55
11888;BME280;6003;42.756;23.130;2022-11-25T02:08:47;153558.25;;;4.46;92.32
11888;BME280;6003;42.756;23.130;2022-11-25T02:11:18;153560.88;;;4.47;92.24
11888;BME280;6003;42.756;23.130;2022-11-25T02:13:48;153563.47;;;4.48;91.50
11888;BME280;6003;42.756;23.130;2022-11-25T02:16:15;153560.88;;;4.47;92.74
11888;BME280;6003;42.756;23.130;2022-11-25T02:18:42;153547.69;;;4.42;91.79
11888;BME280;6003;42.756;23.130;2022-11-25T02:21:09;153558.25;;;4.46;91.98
11888;BME280;6003;42.756;23.130;2022-11-25T02:23:39;153547.69;;;4.42;92.25
11888;BME280;6003;42.756;23.130;2022-11-25T02:26:09;153552.97;;;4.44;92.30
11888;BME280;6003;42.756;23.130;2022-11-25T02:28:38;153549.00;;;4.43;92.35
11888;BME280;6003;42.756;23.130;2022-11-25T02:31:06;153545.09;;;4.41;92.27
11888;BME280;6003;42.756;23.130;2022-11-25T02:33:33;153552.97;;;4.44;91.88
11888;BME280;6003;42.756;23.130;2022-11-25T02:36:02;153579.31;;;4.55;91.64
11888;BME280;6003;42.756;23.130;2022-11-25T02:38:35;153555.59;;;4.45;91.76
11888;BME280;6003;42.756;23.130;2022-11-25T02:41:06;153564.84;;;4.49;91.35
11888;BME280;6003;42.756;23.130;2022-11-25T02:43:37;153560.88;;;4.47;91.29
11888;BME280;6003;42.756;23.130;2022-11-25T02:46:06;153555.59;;;4.45;91.99
11888;BME280;6003;42.756;23.130;2022-11-25T02:48:35;153545.09;;;4.41;91.87
11888;BME280;6003;42.756;23.130;2022-11-25T02:51:03;153554.28;;;4.45;92.62
11888;BME280;6003;42.756;23.130;2022-11-25T02:53:30;153558.25;;;4.46;92.65
11888;BME280;6003;42.756;23.130;2022-11-25T02:55:57;153552.97;;;4.44;93.13
11888;BME280;6003;42.756;23.130;2022-11-25T02:58:24;153543.78;;;4.41;93.79
11888;BME280;6003;42.756;23.130;2022-11-25T03:00:52;153521.44;;;4.32;93.60
11888;BME280;6003;42.756;23.130;2022-11-25T03:03:19;153510.88;;;4.28;94.42
11888;BME280;6003;42.756;23.130;2022-11-25T03:05:46;153487.22;;;4.19;95.42
11888;BME280;6003;42.756;23.130;2022-11-25T03:08:13;153476.72;;;4.15;95.82
11888;BME280;6003;42.756;23.130;2022-11-25T03:10:40;153474.06;;;4.14;96.35
11888;BME280;6003;42.756;23.130;2022-11-25T03:13:08;153463.56;;;4.10;96.77
11888;BME280;6003;42.756;23.130;2022-11-25T03:15:35;153450.41;;;4.04;96.98
11888;BME280;6003;42.756;23.130;2022-11-25T03:18:04;153456.97;;;4.07;97.47
11888;BME280;6003;42.756;23.130;2022-11-25T03:20:32;153447.78;;;4.03;97.91
11888;BME280;6003;42.756;23.130;2022-11-25T03:22:59;153445.13;;;4.02;98.30
11888;BME280;6003;42.756;23.130;2022-11-25T03:25:26;153445.13;;;4.02;98.12
11888;BME280;6003;42.756;23.130;2022-11-25T03:27:53;153434.63;;;3.98;98.77
11888;BME280;6003;42.756;23.130;2022-11-25T03:30:22;153422.78;;;3.94;99.21
11888;BME280;6003;42.756;23.130;2022-11-25T03:32:50;153417.56;;;3.92;99.34
11888;BME280;6003;42.756;23.130;2022-11-25T03:35:18;153409.66;;;3.89;99.80
11888;BME280;6003;42.756;23.130;2022-11-25T03:37:45;153378.09;;;3.76;100.00
11888;BME280;6003;42.756;23.130;2022-11-25T03:40:13;153370.19;;;3.73;100.00
11888;BME280;6003;42.756;23.130;2022-11-25T03:42:41;153378.09;;;3.76;100.00
11888;BME280;6003;42.756;23.130;2022-11-25T03:45:10;153366.28;;;3.72;100.00
11888;BME280;6003;42.756;23.130;2022-11-25T03:47:37;153366.28;;;3.72;100.00
11888;BME280;6003;42.756;23.130;2022-11-25T03:50:05;153353.13;;;3.67;100.00
11888;BME280;6003;42.756;23.130;2022-11-25T03:52:34;153351.81;;;3.66;100.00
11888;BME280;6003;42.756;23.130;2022-11-25T03:55:01;153347.88;;;3.65;100.00
11888;BME280;6003;42.756;23.130;2022-11-25T03:57:28;153341.28;;;3.62;100.00
11888;BME280;6003;42.756;23.130;2022-11-25T03:59:55;153326.81;;;3.56;100.00
11888;BME280;6003;42.756;23.130;2022-11-25T04:02:22;153307.16;;;3.49;100.00
11888;BME280;6003;42.756;23.130;2022-11-25T04:04:48;153330.78;;;3.58;100.00
11888;BME280;6003;42.756;23.130;2022-11-25T04:07:15;153316.34;;;3.52;100.00
11888;BME280;6003;42.756;23.130;2022-11-25T04:09:43;153316.34;;;3.52;100.00
11888;BME280;6003;42.756;23.130;2022-11-25T04:12:10;153297.91;;;3.45;100.00
11888;BME280;6003;42.756;23.130;2022-11-25T04:14:54;153292.69;;;3.43;100.00
11888;BME280;6003;42.756;23.130;2022-11-25T04:17:21;153271.66;;;3.35;100.00
11888;BME280;6003;42.756;23.130;2022-11-25T04:19:48;153288.72;;;3.42;100.00
11888;BME280;6003;42.756;23.130;2022-11-25T04:22:15;153263.78;;;3.32;100.00
11888;BME280;6003;42.756;23.130;2022-11-25T04:24:42;153258.50;;;3.30;100.00
11888;BME280;6003;42.756;23.130;2022-11-25T04:27:10;153276.94;;;3.37;100.00
11888;BME280;6003;42.756;23.130;2022-11-25T04:29:36;153274.28;;;3.36;100.00
11888;BME280;6003;42.756;23.130;2022-11-25T04:32:04;153279.53;;;3.38;100.00
11888;BME280;6003;42.756;23.130;2022-11-25T04:34:30;153269.03;;;3.34;100.00
11888;BME280;6003;42.756;23.130;2022-11-25T04:36:57;153258.50;;;3.30;100.00
11888;BME280;6003;42.756;23.130;2022-11-25T04:39:24;153275.56;;;3.36;100.00
11888;BME280;6003;42.756;23.130;2022-11-25T04:41:51;153258.50;;;3.30;100.00
11888;BME280;6003;42.756;23.130;2022-11-25T04:44:39;153269.03;;;3.34;100.00
11888;BME280;6003;42.756;23.130;2022-11-25T04:47:06;153267.69;;;3.33;100.00
11888;BME280;6003;42.756;23.130;2022-11-25T04:49:33;153274.28;;;3.36;100.00
11888;BME280;6003;42.756;23.130;2022-11-25T04:52:00;153279.53;;;3.38;100.00
11888;BME280;6003;42.756;23.130;2022-11-25T04:54:26;153292.69;;;3.43;100.00
11888;BME280;6003;42.756;23.130;2022-11-25T04:56:53;153297.91;;;3.45;100.00
11888;BME280;6003;42.756;23.130;2022-11-25T04:59:20;153300.56;;;3.46;99.75
11888;BME280;6003;42.756;23.130;2022-11-25T05:02:11;153308.44;;;3.49;99.38
11888;BME280;6003;42.756;23.130;2022-11-25T05:04:38;153300.56;;;3.46;99.63
11888;BME280;6003;42.756;23.130;2022-11-25T05:07:05;153300.56;;;3.46;99.29
11888;BME280;6003;42.756;23.130;2022-11-25T05:09:32;153311.06;;;3.50;98.72
11888;BME280;6003;42.756;23.130;2022-11-25T05:11:59;153329.47;;;3.57;98.26
11888;BME280;6003;42.756;23.130;2022-11-25T05:14:26;153324.22;;;3.55;98.11
11888;BME280;6003;42.756;23.130;2022-11-25T05:16:55;153330.78;;;3.58;98.06
11888;BME280;6003;42.756;23.130;2022-11-25T05:19:23;153337.38;;;3.60;98.05
11888;BME280;6003;42.756;23.130;2022-11-25T05:21:50;153333.41;;;3.59;97.57
11888;BME280;6003;42.756;23.130;2022-11-25T05:24:17;153339.97;;;3.61;97.48
11888;BME280;6003;42.756;23.130;2022-11-25T05:26:44;153343.94;;;3.63;97.19
11888;BME280;6003;42.756;23.130;2022-11-25T05:29:10;153351.81;;;3.66;97.17
11888;BME280;6003;42.756;23.130;2022-11-25T05:31:37;153347.88;;;3.65;96.63
11888;BME280;6003;42.756;23.130;2022-11-25T05:34:04;153355.75;;;3.68;96.70
11888;BME280;6003;42.756;23.130;2022-11-25T05:36:32;153372.88;;;3.74;96.46
11888;BME280;6003;42.756;23.130;2022-11-25T05:38:59;153384.66;;;3.79;95.84
11888;BME280;6003;42.756;23.130;2022-11-25T05:41:26;153384.66;;;3.79;95.29
11888;BME280;6003;42.756;23.130;2022-11-25T05:43:53;153400.44;;;3.85;95.57
11888;BME280;6003;42.756;23.130;2022-11-25T05:46:20;153418.84;;;3.92;94.76
11888;BME280;6003;42.756;23.130;2022-11-25T05:48:46;153442.50;;;4.01;94.39
11888;BME280;6003;42.756;23.130;2022-11-25T05:51:13;153456.97;;;4.07;94.00
11888;BME280;6003;42.756;23.130;2022-11-25T05:53:41;153476.72;;;4.15;93.72
11888;BME280;6003;42.756;23.130;2022-11-25T05:56:08;153492.50;;;4.21;93.85
11888;BME280;6003;42.756;23.130;2022-11-25T05:58:35;153500.38;;;4.24;93.51
11888;BME280;6003;42.756;23.130;2022-11-25T06:01:05;153517.47;;;4.30;93.52
11888;BME280;6003;42.756;23.130;2022-11-25T06:03:33;153542.47;;;4.40;93.27
11888;BME280;6003;42.756;23.130;2022-11-25T06:06:01;153539.81;;;4.39;92.57
11888;BME280;6003;42.756;23.130;2022-11-25T06:08:29;153550.34;;;4.43;92.01
11888;BME280;6003;42.756;23.130;2022-11-25T06:10:58;153534.53;;;4.37;92.48
11888;BME280;6003;42.756;23.130;2022-11-25T06:13:25;153530.63;;;4.36;92.15
11888;BME280;6003;42.756;23.130;2022-11-25T06:15:51;153539.81;;;4.39;92.08
11888;BME280;6003;42.756;23.130;2022-11-25T06:18:18;153534.53;;;4.37;92.19
11888;BME280;6003;42.756;23.130;2022-11-25T06:20:54;153552.97;;;4.44;91.90
11888;BME280;6003;42.756;23.130;2022-11-25T06:23:22;153568.75;;;4.50;92.08
11888;BME280;6003;42.756;23.130;2022-11-25T06:25:49;153585.84;;;4.57;92.06
11888;BME280;6003;42.756;23.130;2022-11-25T06:28:17;153605.59;;;4.65;92.04
11888;BME280;6003;42.756;23.130;2022-11-25T06:30:44;153600.31;;;4.63;91.47
11888;BME280;6003;42.756;23.130;2022-11-25T06:33:11;153597.69;;;4.62;91.49
11888;BME280;6003;42.756;23.130;2022-11-25T06:35:37;153610.84;;;4.67;91.84
11888;BME280;6003;42.756;23.130;2022-11-25T06:38:04;153618.75;;;4.70;91.85
11888;BME280;6003;42.756;23.130;2022-11-25T06:40:31;153608.19;;;4.66;91.85
11888;BME280;6003;42.756;23.130;2022-11-25T06:42:58;153626.63;;;4.73;90.88
11888;BME280;6003;42.756;23.130;2022-11-25T06:45:26;153642.41;;;4.79;91.10
11888;BME280;6003;42.756;23.130;2022-11-25T06:47:53;153639.81;;;4.78;90.72
11888;BME280;6003;42.756;23.130;2022-11-25T06:50:20;153642.41;;;4.79;90.77
11888;BME280;6003;42.756;23.130;2022-11-25T06:52:46;153634.53;;;4.76;90.63
11888;BME280;6003;42.756;23.130;2022-11-25T06:55:13;153621.34;;;4.71;89.85
11888;BME280;6003;42.756;23.130;2022-11-25T06:57:40;153597.69;;;4.62;90.53
11888;BME280;6003;42.756;23.130;2022-11-25T07:00:09;153614.78;;;4.68;90.60
11888;BME280;6003;42.756;23.130;2022-11-25T07:02:37;153581.91;;;4.56;90.56
11888;BME280;6003;42.756;23.130;2022-11-25T07:05:04;153588.50;;;4.58;90.48
11888;BME280;6003;42.756;23.130;2022-11-25T07:07:31;153587.19;;;4.58;90.60
11888;BME280;6003;42.756;23.130;2022-11-25T07:09:58;153571.38;;;4.51;90.78
11888;BME280;6003;42.756;23.130;2022-11-25T07:12:24;153555.59;;;4.45;91.63
11888;BME280;6003;42.756;23.130;2022-11-25T07:14:51;153563.47;;;4.48;91.54
11888;BME280;6003;42.756;23.130;2022-11-25T07:17:18;153571.38;;;4.51;91.80
11888;BME280;6003;42.756;23.130;2022-11-25T07:19:46;153589.81;;;4.59;91.48
11888;BME280;6003;42.756;23.130;2022-11-25T07:22:13;153620.06;;;4.70;92.73
11888;BME280;6003;42.756;23.130;2022-11-25T07:24:40;153633.22;;;4.75;91.54
11888;BME280;6003;42.756;23.130;2022-11-25T07:27:07;153687.16;;;4.96;91.06
11888;BME280;6003;42.756;23.130;2022-11-25T07:29:33;153708.22;;;5.05;90.79
11888;BME280;6003;42.756;23.130;2022-11-25T07:32:01;153737.16;;;5.16;90.07
11888;BME280;6003;42.756;23.130;2022-11-25T07:34:28;153760.84;;;5.25;89.71
11888;BME280;6003;42.756;23.130;2022-11-25T07:36:56;153766.13;;;5.27;89.12
11888;BME280;6003;42.756;23.130;2022-11-25T07:39:23;153813.47;;;5.46;89.90
11888;BME280;6003;42.756;23.130;2022-11-25T07:41:51;153820.06;;;5.48;88.07
11888;BME280;6003;42.756;23.130;2022-11-25T07:44:18;153843.75;;;5.57;88.17
11888;BME280;6003;42.756;23.130;2022-11-25T07:46:46;153892.50;;;5.76;88.97
11888;BME280;6003;42.756;23.130;2022-11-25T07:49:15;153885.91;;;5.74;87.69
11888;BME280;6003;42.756;23.130;2022-11-25T07:51:47;153906.97;;;5.82;88.03
11888;BME280;6003;42.756;23.130;2022-11-25T07:54:16;153931.97;;;5.92;86.55
11888;BME280;6003;42.756;23.130;2022-11-25T07:56:43;153954.41;;;6.00;86.39
11888;BME280;6003;42.756;23.130;2022-11-25T07:59:13;153974.19;;;6.08;85.66
11888;BME280;6003;42.756;23.130;2022-11-25T08:01:40;153964.97;;;6.04;85.23
11888;BME280;6003;42.756;23.130;2022-11-25T08:04:08;154008.41;;;6.21;86.36
11888;BME280;6003;42.756;23.130;2022-11-25T08:06:37;154066.34;;;6.44;87.06
11888;BME280;6003;42.756;23.130;2022-11-25T08:09:04;154087.44;;;6.52;85.87
11888;BME280;6003;42.756;23.130;2022-11-25T08:11:33;154113.81;;;6.62;84.45
11888;BME280;6003;42.756;23.130;2022-11-25T08:14:01;154120.41;;;6.65;82.69
11888;BME280;6003;42.756;23.130;2022-11-25T08:16:28;154120.41;;;6.65;83.50
11888;BME280;6003;42.756;23.130;2022-11-25T08:18:57;154155.94;;;6.78;84.64
11888;BME280;6003;42.756;23.130;2022-11-25T08:21:25;154148.06;;;6.75;82.03
11888;BME280;6003;42.756;23.130;2022-11-25T08:23:52;154136.22;;;6.71;81.91
11888;BME280;6003;42.756;23.130;2022-11-25T08:26:21;154069.03;;;6.45;81.86
11888;BME280;6003;42.756;23.130;2022-11-25T08:28:50;154063.75;;;6.43;81.79
11888;BME280;6003;42.756;23.130;2022-11-25T08:31:19;154046.63;;;6.36;81.49
11888;BME280;6003;42.756;23.130;2022-11-25T08:33:47;154095.34;;;6.55;82.08
11888;BME280;6003;42.756;23.130;2022-11-25T08:36:14;154095.34;;;6.55;82.59
11888;BME280;6003;42.756;23.130;2022-11-25T08:38:41;154137.53;;;6.71;81.82
11888;BME280;6003;42.756;23.130;2022-11-25T08:41:09;154132.25;;;6.69;81.55
11888;BME280;6003;42.756;23.130;2022-11-25T08:43:37;154169.13;;;6.84;82.01
11888;BME280;6003;42.756;23.130;2022-11-25T08:46:08;154132.25;;;6.69;81.28
11888;BME280;6003;42.756;23.130;2022-11-25T08:48:35;154169.13;;;6.84;81.89
11888;BME280;6003;42.756;23.130;2022-11-25T08:51:07;154169.13;;;6.84;82.13
11888;BME280;6003;42.756;23.130;2022-11-25T08:53:35;154161.25;;;6.81;82.17
11888;BME280;6003;42.756;23.130;2022-11-25T08:56:02;154167.84;;;6.83;80.29
11888;BME280;6003;42.756;23.130;2022-11-25T08:58:29;154126.97;;;6.67;81.48
11888;BME280;6003;42.756;23.130;2022-11-25T09:00:56;154146.75;;;6.75;81.38
11888;BME280;6003;42.756;23.130;2022-11-25T09:03:24;154192.84;;;6.93;81.93
11888;BME280;6003;42.756;23.130;2022-11-25T09:05:51;154200.75;;;6.96;80.51
11888;BME280;6003;42.756;23.130;2022-11-25T09:08:18;154179.72;;;6.88;80.92
11888;BME280;6003;42.756;23.130;2022-11-25T09:10:45;154173.13;;;6.85;81.64
11888;BME280;6003;42.756;23.130;2022-11-25T09:13:12;154211.34;;;7.00;81.91
11888;BME280;6003;42.756;23.130;2022-11-25T09:15:39;154187.63;;;6.91;79.46
11888;BME280;6003;42.756;23.130;2022-11-25T09:18:08;154224.53;;;7.05;80.65
11888;BME280;6003;42.756;23.130;2022-11-25T09:20:38;154289.06;;;7.30;80.90
11888;BME280;6003;42.756;23.130;2022-11-25T09:23:07;154258.75;;;7.18;78.38
11888;BME280;6003;42.756;23.130;2022-11-25T09:25:35;154239.03;;;7.11;79.79
11888;BME280;6003;42.756;23.130;2022-11-25T09:28:02;154203.44;;;6.97;80.74
11888;BME280;6003;42.756;23.130;2022-11-25T09:30:30;154256.16;;;7.17;80.21
11888;BME280;6003;42.756;23.130;2022-11-25T09:32:57;154232.44;;;7.08;79.80
11888;BME280;6003;42.756;23.130;2022-11-25T09:35:24;154213.94;;;7.01;80.42
11888;BME280;6003;42.756;23.130;2022-11-25T09:37:52;154229.75;;;7.07;80.97
11888;BME280;6003;42.756;23.130;2022-11-25T09:40:34;154248.22;;;7.14;80.33
11888;BME280;6003;42.756;23.130;2022-11-25T09:43:07;154213.94;;;7.01;80.49
11888;BME280;6003;42.756;23.130;2022-11-25T09:45:59;154207.34;;;6.98;78.49
11888;BME280;6003;42.756;23.130;2022-11-25T09:48:58;154228.44;;;7.07;81.17
11888;BME280;6003;42.756;23.130;2022-11-25T09:51:29;154279.88;;;7.27;79.26
11888;BME280;6003;42.756;23.130;2022-11-25T09:54:05;154303.59;;;7.36;77.75
11888;BME280;6003;42.756;23.130;2022-11-25T09:56:40;154300.97;;;7.35;78.12
11888;BME280;6003;42.756;23.130;2022-11-25T09:59:14;154331.28;;;7.46;79.07
11888;BME280;6003;42.756;23.130;2022-11-25T10:01:46;154329.97;;;7.46;77.21
11888;BME280;6003;42.756;23.130;2022-11-25T10:04:18;154294.38;;;7.32;76.59
11888;BME280;6003;42.756;23.130;2022-11-25T10:06:50;154293.06;;;7.32;76.35
11888;BME280;6003;42.756;23.130;2022-11-25T10:09:24;154311.50;;;7.39;78.06
11888;BME280;6003;42.756;23.130;2022-11-25T10:11:53;154345.78;;;7.52;77.92
11888;BME280;6003;42.756;23.130;2022-11-25T10:14:28;154382.72;;;7.66;76.69
11888;BME280;6003;42.756;23.130;2022-11-25T10:17:02;154358.97;;;7.57;76.23
11888;BME280;6003;42.756;23.130;2022-11-25T10:19:39;154314.16;;;7.40;76.30
11888;BME280;6003;42.756;23.130;2022-11-25T10:22:23;154327.31;;;7.45;76.39
11888;BME280;6003;42.756;23.130;2022-11-25T10:24:53;154303.59;;;7.36;76.52
11888;BME280;6003;42.756;23.130;2022-11-25T10:27:26;154352.38;;;7.55;77.07
11888;BME280;6003;42.756;23.130;2022-11-25T10:30:02;154337.88;;;7.49;76.99
11888;BME280;6003;42.756;23.130;2022-11-25T10:32:36;154341.81;;;7.51;76.67
11888;BME280;6003;42.756;23.130;2022-11-25T10:35:14;154347.09;;;7.53;76.43
11888;BME280;6003;42.756;23.130;2022-11-25T10:37:46;154311.50;;;7.39;77.50
11888;BME280;6003;42.756;23.130;2022-11-25T10:40:16;154282.47;;;7.28;77.10
11888;BME280;6003;42.756;23.130;2022-11-25T10:42:43;154253.53;;;7.16;77.91
11888;BME280;6003;42.756;23.130;2022-11-25T10:45:10;154279.88;;;7.27;77.80
11888;BME280;6003;42.756;23.130;2022-11-25T10:47:55;154278.56;;;7.26;78.58
11888;BME280;6003;42.756;23.130;2022-11-25T10:50:32;154300.97;;;7.35;78.50
11888;BME280;6003;42.756;23.130;2022-11-25T10:53:09;154312.84;;;7.39;79.64
11888;BME280;6003;42.756;23.130;2022-11-25T10:55:55;154298.34;;;7.34;79.47
11888;BME280;6003;42.756;23.130;2022-11-25T10:58:27;154216.63;;;7.02;81.10
11888;BME280;6003;42.756;23.130;2022-11-25T11:01:02;154270.66;;;7.23;80.84
11888;BME280;6003;42.756;23.130;2022-11-25T11:03:29;154248.22;;;7.14;81.92
11888;BME280;6003;42.756;23.130;2022-11-25T11:05:56;154184.94;;;6.90;81.79
11888;BME280;6003;42.756;23.130;2022-11-25T11:08:25;154171.75;;;6.85;81.70
11888;BME280;6003;42.756;23.130;2022-11-25T11:11:15;154149.34;;;6.76;81.87
11888;BME280;6003;42.756;23.130;2022-11-25T11:13:42;154157.31;;;6.79;83.81
11888;BME280;6003;42.756;23.130;2022-11-25T11:16:22;154142.81;;;6.73;82.87
11888;BME280;6003;42.756;23.130;2022-11-25T11:18:51;154148.06;;;6.75;81.73
11888;BME280;6003;42.756;23.130;2022-11-25T11:21:23;154142.81;;;6.73;82.48
11888;BME280;6003;42.756;23.130;2022-11-25T11:23:52;154165.22;;;6.82;83.36
11888;BME280;6003;42.756;23.130;2022-11-25T11:26:26;154099.31;;;6.57;83.36
11888;BME280;6003;42.756;23.130;2022-11-25T11:29:02;154095.34;;;6.55;83.90
11888;BME280;6003;42.756;23.130;2022-11-25T11:31:35;154020.25;;;6.26;84.08
11888;BME280;6003;42.756;23.130;2022-11-25T11:34:23;153992.59;;;6.15;85.03
11888;BME280;6003;42.756;23.130;2022-11-25T11:37:10;153988.66;;;6.14;84.78
11888;BME280;6003;42.756;23.130;2022-11-25T11:39:54;154038.72;;;6.33;85.99
11888;BME280;6003;42.756;23.130;2022-11-25T11:42:33;154051.88;;;6.38;84.37
11888;BME280;6003;42.756;23.130;2022-11-25T11:45:13;154100.63;;;6.57;84.77
11888;BME280;6003;42.756;23.130;2022-11-25T11:47:52;154099.31;;;6.57;83.56
11888;BME280;6003;42.756;23.130;2022-11-25T11:50:30;154124.34;;;6.66;83.83
11888;BME280;6003;42.756;23.130;2022-11-25T11:53:05;154121.72;;;6.65;83.28
11888;BME280;6003;42.756;23.130;2022-11-25T11:55:57;154113.81;;;6.62;84.02
11888;BME280;6003;42.756;23.130;2022-11-25T11:58:48;154024.25;;;6.27;85.00
11888;BME280;6003;42.756;23.130;2022-11-25T12:01:35;153964.97;;;6.04;85.51
11888;BME280;6003;42.756;23.130;2022-11-25T12:04:14;153929.34;;;5.91;85.85
11888;BME280;6003;42.756;23.130;2022-11-25T12:06:51;153912.22;;;5.84;85.94
11888;BME280;6003;42.756;23.130;2022-11-25T12:09:21;153892.50;;;5.76;87.42
11888;BME280;6003;42.756;23.130;2022-11-25T12:11:54;153905.66;;;5.81;86.96
11888;BME280;6003;42.756;23.130;2022-11-25T12:14:33;153900.38;;;5.79;87.04
11888;BME280;6003;42.756;23.130;2022-11-25T12:17:06;153921.47;;;5.87;86.94
11888;BME280;6003;42.756;23.130;2022-11-25T12:19:39;153953.09;;;6.00;87.29
11888;BME280;6003;42.756;23.130;2022-11-25T12:22:13;154005.78;;;6.20;86.96
11888;BME280;6003;42.756;23.130;2022-11-25T12:24:48;154020.25;;;6.26;85.23
11888;BME280;6003;42.756;23.130;2022-11-25T12:27:20;154047.94;;;6.37;85.25
11888;BME280;6003;42.756;23.130;2022-11-25T12:29:52;154094.03;;;6.54;85.69
11888;BME280;6003;42.756;23.130;2022-11-25T12:32:43;154095.34;;;6.55;84.50
11888;BME280;6003;42.756;23.130;2022-11-25T12:35:18;154126.97;;;6.67;83.18
11888;BME280;6003;42.756;23.130;2022-11-25T12:37:49;154136.22;;;6.71;82.80
11888;BME280;6003;42.756;23.130;2022-11-25T12:40:26;154137.53;;;6.71;82.10
11888;BME280;6003;42.756;23.130;2022-11-25T12:43:08;154145.44;;;6.74;82.78
11888;BME280;6003;42.756;23.130;2022-11-25T12:45:38;154171.75;;;6.85;82.74
11888;BME280;6003;42.756;23.130;2022-11-25T12:48:08;154173.13;;;6.85;81.79
11888;BME280;6003;42.756;23.130;2022-11-25T12:50:44;154171.75;;;6.85;81.33
11888;BME280;6003;42.756;23.130;2022-11-25T12:53:19;154182.34;;;6.89;81.90
11888;BME280;6003;42.756;23.130;2022-11-25T12:55:52;154221.84;;;7.04;81.35
11888;BME280;6003;42.756;23.130;2022-11-25T12:58:44;154229.75;;;7.07;80.12
11888;BME280;6003;42.756;23.130;2022-11-25T13:01:35;154246.94;;;7.14;80.70
11888;BME280;6003;42.756;23.130;2022-11-25T13:04:32;154229.75;;;7.07;80.46
11888;BME280;6003;42.756;23.130;2022-11-25T13:10:15;154269.34;;;7.22;79.76
11888;BME280;6003;42.756;23.130;2022-11-25T13:12:56;154254.84;;;7.17;80.31
11888;BME280;6003;42.756;23.130;2022-11-25T13:15:26;154248.22;;;7.14;81.55
11888;BME280;6003;42.756;23.130;2022-11-25T13:17:59;154271.97;;;7.23;80.52
11888;BME280;6003;42.756;23.130;2022-11-25T13:20:38;154219.25;;;7.03;78.22